Waddell, Mississippi
Current Conditions -  °F | °C
As of 10:35 AM on Monday 26 Jan 2015 (Local Time) from KSTF Reporting Station
Broken Clouds Broken Clouds  
Wind Chill: 37°   Ceiling: 2700
Heat Index: 43°   Visibility: 10mi
Dew Point: 32°   Wind: 9mph
Humidity: 66%   Direction: 330°NNW
Pressure: 30.12"   Gusts: 16mph
Location:  33.6258°N, 88.8428°W
Report Text: KSTF 261635Z AUTO 33008G14KT 302V012 10SM BKN027 BKN034 06/00 A3012 RMK AO2
Loading
Personal Weather Stations






























Interactive Weather Map New forecast layout! Learn more

10-Day Weather Forecast

Advertisements
Track Severe Weather on mobile